Time;durP1;ratioP1;P1;durP2;ratioP2;P2;SDS_P1;SDS_P2;PMS_P1;PMS_P2;Temp;Humidity;BMP_temperature;BMP_pressure;BME280_temperature;BME280_humidity;BME280_pressure;Samples;Min_cycle;Max_cycle;Signal;HPM_P1;HPM_P2
2022/09/14 00:01:57;;;;;;;11.20;8.35;;;;;;;18.26;70.52;99028.25;10394140;28;20057;-85
2022/09/14 00:06:58;;;;;;;12.20;8.40;;;;;;;18.33;70.67;99045.09;10395929;28;20506;-85
2022/09/14 00:12:00;;;;;;;14.48;9.10;;;;;;;18.55;70.21;99049.78;10388725;28;20052;-84
2022/09/14 00:17:02;;;;;;;14.27;8.68;;;;;;;18.63;69.80;99053.28;10399741;28;20057;-84
2022/09/14 00:22:05;;;;;;;134.40;20.67;;;;;;;18.65;69.47;99056.59;10387741;28;20511;-85
2022/09/14 00:27:07;;;;;;;13.75;8.45;;;;;;;18.60;70.10;99048.31;10387386;28;20045;-85
2022/09/14 00:32:09;;;;;;;21.10;11.43;;;;;;;18.74;69.62;99041.53;10394501;28;20059;-86
2022/09/14 00:37:11;;;;;;;9.85;6.13;;;;;;;18.84;69.29;99039.56;10390712;28;20060;-84
2022/09/14 00:42:15;;;;;;;13.55;7.63;;;;;;;18.90;68.95;99030.94;10390426;28;20741;-85
2022/09/14 00:47:17;;;;;;;11.98;6.60;;;;;;;18.90;68.87;99032.75;10393830;28;20099;-85
2022/09/14 00:52:21;;;;;;;16.95;7.85;;;;;;;18.90;69.09;99038.88;10389426;28;20483;-85
2022/09/14 00:57:26;;;;;;;10.88;6.13;;;;;;;18.93;68.49;99033.25;10396810;28;20045;-84
2022/09/14 01:02:28;;;;;;;11.57;7.10;;;;;;;18.92;68.78;99033.41;10393693;28;20490;-85
2022/09/14 01:07:45;;;;;;;12.30;7.20;;;;;;;18.84;68.83;99022.81;10392757;28;20061;-85
2022/09/14 01:13:10;;;;;;;12.82;7.85;;;;;;;18.72;68.99;99014.38;10391556;28;20042;-84
2022/09/14 01:18:17;;;;;;;10.00;7.30;;;;;;;18.73;69.26;99021.31;10392864;28;20053;-84
2022/09/14 01:23:37;;;;;;;11.15;8.07;;;;;;;18.73;68.98;99018.69;10391652;28;20050;-84
2022/09/14 01:28:49;;;;;;;14.10;7.78;;;;;;;18.70;69.09;99007.59;10393589;28;20057;-84
2022/09/14 01:34:04;;;;;;;14.63;7.88;;;;;;;18.55;69.25;98997.66;10404467;28;20050;-84
2022/09/14 01:39:08;;;;;;;13.65;7.13;;;;;;;18.33;69.93;98985.06;10387896;28;20526;-84
2022/09/14 01:44:33;;;;;;;14.55;7.60;;;;;;;18.23;70.20;98980.91;10399533;28;20053;-84
2022/09/14 01:49:50;;;;;;;12.43;7.70;;;;;;;18.37;69.84;98977.63;10388474;28;20049;-84
2022/09/14 01:54:59;;;;;;;14.60;9.93;;;;;;;18.41;70.04;98982.41;10390381;28;20049;-84
2022/09/14 02:00:11;;;;;;;16.13;8.97;;;;;;;18.37;70.21;98973.16;10388664;28;20423;-84
2022/09/14 02:05:52;;;;;;;20.42;10.60;;;;;;;18.34;70.10;98964.72;10390748;28;20144;-84
2022/09/14 02:10:54;;;;;;;16.88;11.07;;;;;;;18.24;70.49;98972.78;10386937;28;20411;-84
2022/09/14 02:15:56;;;;;;;16.42;8.48;;;;;;;18.39;70.04;98968.53;10393117;28;20077;-84
2022/09/14 02:21:04;;;;;;;24.42;11.93;;;;;;;18.55;69.88;98968.53;10397390;28;20131;-84
2022/09/14 02:26:06;;;;;;;12.32;7.78;;;;;;;18.63;69.63;98959.75;10403617;28;20054;-84
2022/09/14 02:31:26;;;;;;;24.92;10.75;;;;;;;18.70;69.58;98955.47;10395989;28;20057;-86
2022/09/14 02:36:50;;;;;;;15.10;8.10;;;;;;;18.74;69.72;98956.78;10398159;28;20057;-86
2022/09/14 02:42:00;;;;;;;27.98;12.10;;;;;;;18.81;69.45;98955.09;10395047;28;20053;-86
2022/09/14 02:47:18;;;;;;;16.35;9.77;;;;;;;18.84;69.17;98954.78;10393366;28;20053;-87
2022/09/14 02:52:52;;;;;;;21.00;9.55;;;;;;;18.79;68.83;98945.69;10392694;28;20049;-87
2022/09/14 02:58:04;;;;;;;19.70;9.70;;;;;;;18.83;69.29;98947.81;10396763;28;20045;-87
2022/09/14 03:03:07;;;;;;;17.02;8.95;;;;;;;18.87;69.04;98943.81;10394683;28;20054;-87
2022/09/14 03:08:10;;;;;;;25.40;13.15;;;;;;;18.85;68.82;98947.66;10392675;28;20053;-87
2022/09/14 03:13:12;;;;;;;21.77;12.95;;;;;;;18.83;69.06;98939.88;10387943;28;20518;-87
2022/09/14 03:18:14;;;;;;;23.50;12.80;;;;;;;18.88;68.97;98929.59;10390567;28;20517;-86
2022/09/14 03:23:16;;;;;;;27.10;14.52;;;;;;;18.88;68.94;98937.56;10390557;28;20049;-88
2022/09/14 03:28:17;;;;;;;35.90;14.93;;;;;;;18.78;68.91;98928.97;10394597;28;20060;-88
2022/09/14 03:33:19;;;;;;;95.30;17.92;;;;;;;18.60;69.36;98926.50;10391260;28;20442;-87
2022/09/14 03:38:20;;;;;;;12.00;7.47;;;;;;;18.56;69.75;98911.91;10391743;28;20061;-87
2022/09/14 03:43:23;;;;;;;12.77;8.48;;;;;;;18.56;69.42;98903.16;10392407;28;20061;-88
2022/09/14 03:48:24;;;;;;;16.42;9.98;;;;;;;18.64;69.30;98900.50;10392371;28;20111;-87
2022/09/14 03:53:26;;;;;;;16.92;11.48;;;;;;;18.68;69.17;98893.88;10389040;28;20060;-88
2022/09/14 03:58:31;;;;;;;15.85;9.90;;;;;;;18.74;69.22;98885.25;10389665;28;20057;-87
2022/09/14 04:03:33;;;;;;;17.25;9.52;;;;;;;18.54;69.53;98881.31;10400852;28;20485;-87
2022/09/14 04:08:38;;;;;;;10.82;7.82;;;;;;;18.49;69.89;98880.97;10392865;28;20060;-88
2022/09/14 04:13:40;;;;;;;33.85;9.40;;;;;;;18.53;69.65;98871.72;10392961;28;20466;-87
2022/09/14 04:18:42;;;;;;;31.27;13.98;;;;;;;18.56;69.91;98863.44;10401168;28;20056;-87
2022/09/14 04:23:44;;;;;;;12.63;8.13;;;;;;;18.56;69.57;98866.09;10382972;28;20166;-87
2022/09/14 04:29:06;;;;;;;9.52;6.68;;;;;;;18.53;69.80;98867.25;10388808;28;20458;-87
2022/09/14 04:34:11;;;;;;;17.25;8.07;;;;;;;18.63;69.54;98862.59;10394069;28;20057;-87
2022/09/14 04:39:13;;;;;;;44.30;12.00;;;;;;;18.68;69.54;98870.03;10401298;28;20072;-87
2022/09/14 04:44:15;;;;;;;120.32;12.23;;;;;;;18.73;69.53;98865.03;10400011;28;20041;-87
2022/09/14 04:49:17;;;;;;;227.88;18.75;;;;;;;18.70;69.52;98862.75;10392531;28;20052;-87
2022/09/14 04:54:19;;;;;;;32.72;10.23;;;;;;;18.71;69.54;98868.88;10398623;28;20041;-88
2022/09/14 04:59:21;;;;;;;43.67;11.50;;;;;;;18.62;69.40;98865.41;10396353;28;20057;-88
2022/09/14 05:04:22;;;;;;;296.88;12.40;;;;;;;18.49;69.65;98865.94;10402997;28;20049;-88
2022/09/14 05:09:24;;;;;;;18.73;3.28;;;;;;;18.27;70.28;98853.38;10400077;28;20069;-88
2022/09/14 05:14:26;;;;;;;10.32;5.95;;;;;;;18.25;70.56;98860.66;10399010;28;20049;-88
2022/09/14 05:19:27;;;;;;;9.25;4.82;;;;;;;18.33;70.50;98854.53;10399962;28;20463;-88
2022/09/14 05:24:29;;;;;;;10.85;6.47;;;;;;;18.36;70.05;98844.41;10396505;28;20515;-89
2022/09/14 05:29:33;;;;;;;13.00;6.22;;;;;;;18.35;70.37;98847.25;10398759;28;20490;-88
2022/09/14 05:34:39;;;;;;;18.02;7.88;;;;;;;18.39;70.37;98843.25;10401468;28;20042;-88
2022/09/14 05:39:41;;;;;;;11.60;7.10;;;;;;;18.35;70.05;98840.13;10405935;28;20061;-88
2022/09/14 05:44:42;;;;;;;11.75;7.00;;;;;;;18.41;70.22;98841.28;10401285;28;20103;-87
2022/09/14 05:49:44;;;;;;;15.45;8.50;;;;;;;18.44;69.98;98835.66;10398469;28;20061;-88
2022/09/14 05:54:46;;;;;;;9.23;6.32;;;;;;;18.34;70.46;98829.72;10398906;28;20037;-88
2022/09/14 05:59:47;;;;;;;12.93;5.90;;;;;;;18.43;70.32;98839.28;10398631;28;20064;-87
2022/09/14 06:04:49;;;;;;;11.45;6.78;;;;;;;18.45;70.38;98837.28;10399307;28;20045;-88
2022/09/14 06:09:51;;;;;;;12.43;6.90;;;;;;;18.47;70.31;98840.59;10402277;28;20088;-88
2022/09/14 06:14:53;;;;;;;15.23;8.63;;;;;;;18.54;70.26;98838.97;10395756;28;20056;-88
2022/09/14 06:19:54;;;;;;;10.93;7.00;;;;;;;18.53;69.99;98837.28;10398364;28;20061;-88
2022/09/14 06:24:56;;;;;;;16.40;8.88;;;;;;;18.59;69.81;98833.97;10394569;28;20050;-88
2022/09/14 06:29:58;;;;;;;24.00;11.65;;;;;;;18.71;69.88;98840.56;10399697;28;20064;-88
2022/09/14 06:34:59;;;;;;;32.25;9.65;;;;;;;18.81;69.83;98843.03;10394856;28;20053;-88
2022/09/14 06:40:01;;;;;;;370.10;18.17;;;;;;;18.76;69.51;98832.94;10398185;28;20817;-88
2022/09/14 06:45:04;;;;;;;33.40;10.38;;;;;;;18.84;69.41;98832.09;10399459;28;20175;-88
2022/09/14 06:50:07;;;;;;;12.48;7.50;;;;;;;18.75;69.31;98839.22;10388039;28;20055;-80
2022/09/14 06:55:08;;;;;;;13.57;8.57;;;;;;;18.83;69.37;98825.94;10366443;28;20060;-80
2022/09/14 07:00:10;;;;;;;15.70;9.40;;;;;;;18.86;69.30;98828.28;10373650;28;20049;-80
2022/09/14 07:05:14;;;;;;;13.07;7.72;;;;;;;18.91;69.22;98830.41;10378360;28;20052;-80
2022/09/14 07:10:15;;;;;;;14.95;8.95;;;;;;;19.08;69.11;98826.72;10379331;28;20616;-80
2022/09/14 07:15:17;;;;;;;12.20;8.38;;;;;;;19.22;68.42;98826.81;10379673;28;20046;-80
2022/09/14 07:20:19;;;;;;;10.00;6.78;;;;;;;19.26;68.16;98812.22;10383975;28;20518;-79
2022/09/14 07:25:20;;;;;;;9.98;5.88;;;;;;;19.18;68.48;98817.56;10383670;28;20041;-80
2022/09/14 07:30:23;;;;;;;8.65;6.13;;;;;;;19.09;68.19;98808.03;10383335;28;20053;-80
2022/09/14 07:35:25;;;;;;;11.90;6.70;;;;;;;19.18;68.90;98824.69;10391436;28;20353;-80
2022/09/14 07:40:27;;;;;;;14.85;6.90;;;;;;;19.23;68.41;98831.16;10389626;28;20045;-81
2022/09/14 07:45:29;;;;;;;7.15;4.50;;;;;;;19.07;68.36;98801.22;10390669;28;20061;-81
2022/09/14 07:50:31;;;;;;;8.57;4.95;;;;;;;19.18;68.35;98804.31;10390547;28;20053;-80
2022/09/14 07:55:32;;;;;;;6.85;4.00;;;;;;;19.17;68.31;98800.03;10399013;28;20045;-80
2022/09/14 08:00:34;;;;;;;8.88;5.40;;;;;;;19.33;68.16;98793.81;10391621;28;20057;-81
2022/09/14 08:05:36;;;;;;;5.15;3.42;;;;;;;19.39;68.25;98809.84;10392215;28;20053;-80
2022/09/14 08:10:38;;;;;;;7.03;3.53;;;;;;;19.51;67.60;98809.44;10398450;28;20490;-80
2022/09/14 08:15:39;;;;;;;5.93;3.30;;;;;;;19.35;68.02;98811.19;10395174;28;20054;-80
2022/09/14 08:20:41;;;;;;;8.23;4.20;;;;;;;19.58;68.02;98816.53;10389451;28;20064;-81
2022/09/14 08:25:43;;;;;;;5.93;3.88;;;;;;;19.62;67.48;98814.34;10390683;28;20380;-81
2022/09/14 08:30:44;;;;;;;8.52;4.53;;;;;;;19.56;67.90;98829.16;10389312;28;20057;-80
2022/09/14 08:35:46;;;;;;;11.00;4.80;;;;;;;19.52;67.96;98827.84;10387851;28;20049;-81
2022/09/14 08:41:09;;;;;;;10.02;4.70;;;;;;;19.57;67.42;98814.03;10390089;28;20064;-80
2022/09/14 08:46:24;;;;;;;10.60;6.32;;;;;;;19.46;68.37;98824.03;10398498;28;20049;-81
2022/09/14 08:51:26;;;;;;;12.10;7.40;;;;;;;19.31;68.91;98831.09;10392120;28;20072;-82
2022/09/14 08:56:35;;;;;;;11.35;7.65;;;;;;;19.32;68.69;98832.75;10399789;28;20061;-82
2022/09/14 09:02:05;;;;;;;10.65;5.63;;;;;;;19.30;69.21;98824.13;10385269;28;20095;-82
2022/09/14 09:07:12;;;;;;;9.27;5.47;;;;;;;19.46;69.07;98839.97;10390151;28;20133;-81
2022/09/14 09:12:18;;;;;;;5.78;3.72;;;;;;;19.64;68.05;98833.56;10391399;28;20057;-81
2022/09/14 09:17:43;;;;;;;5.13;3.17;;;;;;;19.96;66.77;98822.75;10390105;28;20049;-82
2022/09/14 09:23:08;;;;;;;5.72;3.50;;;;;;;20.24;65.96;98819.38;10384750;28;20147;-82
2022/09/14 09:28:12;;;;;;;5.90;3.10;;;;;;;20.50;65.65;98818.94;10386589;28;21094;-82
2022/09/14 09:33:18;;;;;;;7.20;3.30;;;;;;;20.81;64.79;98824.13;10392978;28;20053;-81
2022/09/14 09:38:24;;;;;;;5.10;3.10;;;;;;;21.18;64.14;98808.06;10401545;28;20067;-81
2022/09/14 09:43:26;;;;;;;6.75;3.33;;;;;;;21.89;63.11;98799.25;10394141;28;20487;-83
2022/09/14 09:48:48;;;;;;;10.45;3.42;;;;;;;21.77;62.62;98796.28;10390199;28;20057;-81
2022/09/14 09:53:53;;;;;;;8.77;3.75;;;;;;;22.23;62.53;98794.03;10390915;28;20041;-82
2022/09/14 09:58:56;;;;;;;6.20;3.90;;;;;;;22.29;61.63;98779.94;10373779;28;20052;-81
2022/09/14 10:04:17;;;;;;;6.25;3.90;;;;;;;22.03;61.12;98769.09;10389318;28;20064;-81
2022/09/14 10:09:22;;;;;;;6.68;3.90;;;;;;;22.02;62.09;98764.75;10399095;28;20085;-82
2022/09/14 10:14:36;;;;;;;8.45;4.65;;;;;;;21.78;62.06;98759.84;10389617;28;20048;-82
2022/09/14 10:19:39;;;;;;;8.75;4.78;;;;;;;21.40;63.11;98769.06;10380479;28;20175;-81
2022/09/14 10:24:51;;;;;;;6.05;3.65;;;;;;;21.01;64.14;98774.69;10388785;28;20496;-82
2022/09/14 10:29:55;;;;;;;10.25;4.88;;;;;;;21.12;64.95;98770.75;10384712;28;20060;-82
2022/09/14 10:34:58;;;;;;;8.50;4.70;;;;;;;21.52;64.22;98756.91;10374040;28;20423;-81
2022/09/14 10:40:14;;;;;;;8.68;4.30;;;;;;;21.60;64.44;98757.59;10381562;28;20094;-81
2022/09/14 10:45:26;;;;;;;5.30;3.30;;;;;;;21.48;64.53;98753.81;10383563;28;20140;-81
2022/09/14 10:51:19;;;;;;;8.15;3.70;;;;;;;21.57;64.63;98750.03;10375152;28;20089;-81
2022/09/14 10:56:38;;;;;;;5.28;3.78;;;;;;;21.44;65.12;98741.91;10379765;28;20580;-82
2022/09/14 11:02:03;;;;;;;6.07;3.47;;;;;;;21.31;64.98;98719.63;10383922;28;20070;-81
2022/09/14 11:07:25;;;;;;;7.50;3.80;;;;;;;21.56;64.85;98724.41;10388177;28;20073;-81
2022/09/14 11:12:30;;;;;;;12.82;4.05;;;;;;;21.77;64.46;98721.75;10373885;28;20049;-81
2022/09/14 11:17:41;;;;;;;10.02;3.85;;;;;;;22.20;63.65;98703.88;10376183;28;20167;-81
2022/09/14 11:23:11;;;;;;;6.40;3.75;;;;;;;22.57;62.16;98700.00;10382373;28;20414;-81
2022/09/14 11:28:26;;;;;;;10.95;5.18;;;;;;;22.69;62.91;98725.91;10398483;28;20060;-81
2022/09/14 11:33:40;;;;;;;6.80;4.90;;;;;;;22.54;63.64;98714.53;10397872;28;20160;-81
2022/09/14 11:38:58;;;;;;;8.25;5.00;;;;;;;22.93;62.00;98708.59;10392415;28;20053;-81
2022/09/14 11:44:14;;;;;;;7.10;4.97;;;;;;;23.33;61.45;98706.88;10386749;28;20057;-82
2022/09/14 11:49:27;;;;;;;7.82;4.40;;;;;;;23.24;61.67;98716.91;10388007;28;20946;-81
2022/09/14 11:54:30;;;;;;;7.00;4.05;;;;;;;23.07;61.79;98704.94;10389217;28;20057;-82
2022/09/14 11:59:39;;;;;;;6.25;3.70;;;;;;;23.61;60.78;98696.03;10379888;28;20057;-82
2022/09/14 12:05:04;;;;;;;6.87;3.20;;;;;;;23.93;59.72;98692.53;10393195;28;20418;-81
2022/09/14 12:10:16;;;;;;;5.13;2.80;;;;;;;24.06;59.48;98680.00;10382351;28;20057;-82
2022/09/14 12:15:24;;;;;;;4.78;3.10;;;;;;;24.41;58.28;98669.88;10382527;28;20057;-82
2022/09/14 12:20:51;;;;;;;3.70;2.70;;;;;;;24.60;57.34;98669.00;10388463;28;20772;-82
2022/09/14 12:26:12;;;;;;;5.53;2.80;;;;;;;24.56;56.94;98674.97;10390036;28;20060;-82
2022/09/14 12:31:54;;;;;;;5.47;2.35;;;;;;;23.89;57.18;98670.78;10401489;28;20141;-82
2022/09/14 12:36:59;;;;;;;3.95;2.70;;;;;;;23.52;58.56;98679.41;10392090;28;20497;-83
2022/09/14 12:42:26;;;;;;;4.45;2.60;;;;;;;23.32;58.68;98679.34;10385323;28;20061;-82
2022/09/14 12:47:28;;;;;;;5.28;2.85;;;;;;;22.99;59.75;98673.13;10406779;28;20073;-83
2022/09/14 12:52:50;;;;;;;4.85;2.60;;;;;;;22.81;60.00;98667.53;10386130;28;20065;-82
2022/09/14 12:58:11;;;;;;;5.63;2.67;;;;;;;22.78;60.66;98653.78;10386744;28;20056;-83
2022/09/14 13:03:31;;;;;;;4.90;2.80;;;;;;;22.71;60.61;98643.06;10392872;28;20064;-82
2022/09/14 13:08:33;;;;;;;4.82;2.95;;;;;;;22.57;61.16;98646.69;10390503;28;20061;-83
2022/09/14 13:13:36;;;;;;;5.13;2.83;;;;;;;22.52;60.78;98633.97;10394761;28;20059;-84
2022/09/14 13:18:38;;;;;;;5.35;3.00;;;;;;;22.43;61.27;98639.66;10379226;28;20441;-82
2022/09/14 13:23:41;;;;;;;4.05;2.83;;;;;;;22.44;61.64;98643.97;10385930;28;20057;-83
2022/09/14 13:28:45;;;;;;;5.38;3.28;;;;;;;22.39;62.30;98628.56;10390555;28;20057;-82
2022/09/14 13:33:50;;;;;;;6.32;3.45;;;;;;;22.34;62.37;98625.69;10384578;28;20503;-82
2022/09/14 13:38:54;;;;;;;8.77;3.28;;;;;;;22.39;63.39;98612.59;10383292;28;20316;-82
2022/09/14 13:43:59;;;;;;;5.88;3.20;;;;;;;22.37;62.93;98613.81;10384046;28;20057;-82
2022/09/14 13:49:06;;;;;;;4.20;2.90;;;;;;;22.32;63.15;98606.41;10382718;28;20064;-82
2022/09/14 13:54:28;;;;;;;4.40;3.30;;;;;;;22.13;63.78;98633.75;10379073;28;20045;-82
2022/09/14 13:59:31;;;;;;;7.75;3.60;;;;;;;21.97;64.68;98634.03;10380587;28;20499;-82
2022/09/14 14:04:38;;;;;;;8.82;3.90;;;;;;;21.81;64.86;98651.16;10384924;28;20728;-82
2022/09/14 14:09:50;;;;;;;6.28;3.50;;;;;;;21.73;64.79;98634.50;10382965;28;20054;-82
2022/09/14 14:15:25;;;;;;;8.88;4.10;;;;;;;21.60;65.90;98616.59;10378842;28;20538;-83
2022/09/14 14:20:33;;;;;;;12.30;4.07;;;;;;;21.56;65.82;98631.28;10388085;28;20057;-82
2022/09/14 14:25:47;;;;;;;10.93;5.53;;;;;;;21.32;66.65;98628.22;10388400;28;20053;-82
2022/09/14 14:30:50;;;;;;;11.43;5.32;;;;;;;20.89;67.51;98624.69;10392891;28;20049;-82
2022/09/14 14:35:53;;;;;;;13.93;6.40;;;;;;;20.55;68.05;98608.56;10390498;28;20366;-82
2022/09/14 14:40:56;;;;;;;5.97;3.50;;;;;;;20.58;67.41;98619.66;10385907;28;20396;-82
2022/09/14 14:46:00;;;;;;;10.32;5.70;;;;;;;20.54;68.10;98613.03;10393114;28;20060;-82
2022/09/14 14:51:02;;;;;;;8.38;5.30;;;;;;;20.22;69.17;98603.66;10388901;28;20063;-83
2022/09/14 14:56:04;;;;;;;11.25;5.30;;;;;;;20.00;69.77;98604.59;10391840;28;20041;-82
2022/09/14 15:01:07;;;;;;;8.38;5.10;;;;;;;19.99;70.18;98602.13;10391304;28;20066;-82
2022/09/14 15:06:22;;;;;;;9.45;3.72;;;;;;;20.04;69.50;98599.75;10394906;28;20057;-83
2022/09/14 15:11:24;;;;;;;7.72;4.80;;;;;;;20.05;69.69;98585.47;10388083;28;20155;-82
2022/09/14 15:16:26;;;;;;;7.80;4.13;;;;;;;20.12;69.40;98568.63;10384105;28;20046;-82
2022/09/14 15:21:27;;;;;;;11.02;4.57;;;;;;;20.12;69.65;98567.78;10391919;28;20080;-82
2022/09/14 15:26:29;;;;;;;8.20;4.82;;;;;;;20.06;69.77;98582.63;10390147;28;20049;-82
2022/09/14 15:31:32;;;;;;;10.25;5.18;;;;;;;20.06;70.34;98548.13;10392087;28;20059;-82
2022/09/14 15:36:34;;;;;;;7.57;4.05;;;;;;;20.01;70.05;98555.81;10393280;28;20514;-87
2022/09/14 15:41:36;;;;;;;8.27;3.50;;;;;;;20.15;69.79;98544.34;10396704;28;20069;-86
2022/09/14 15:46:39;;;;;;;11.57;5.00;;;;;;;20.32;69.71;98542.31;10398491;28;20045;-87
2022/09/14 15:51:41;;;;;;;8.93;5.55;;;;;;;20.29;69.75;98526.75;10395309;28;20058;-87
2022/09/14 15:56:52;;;;;;;6.28;3.92;;;;;;;20.29;69.12;98524.09;10395605;28;20065;-87
2022/09/14 16:01:54;;;;;;;8.32;5.13;;;;;;;20.23;69.89;98536.28;10390056;28;20053;-87
2022/09/14 16:06:56;;;;;;;10.13;3.88;;;;;;;20.03;69.92;98550.34;10396346;28;20569;-87
2022/09/14 16:11:58;;;;;;;4.97;3.20;;;;;;;20.00;69.96;98561.31;10396370;28;20071;-87
2022/09/14 16:17:03;;;;;;;5.88;3.92;;;;;;;20.13;69.81;98585.38;10405377;28;20081;-89
2022/09/14 16:22:05;;;;;;;15.25;5.18;;;;;;;20.22;69.74;98592.22;10408974;28;20558;-88
2022/09/14 16:27:07;;;;;;;6.32;2.70;;;;;;;20.07;69.56;98592.22;10416354;28;20045;-88
2022/09/14 16:32:23;;;;;;;6.93;2.40;;;;;;;19.92;69.11;98595.91;10414510;28;20049;-88
2022/09/14 16:37:25;;;;;;;4.50;2.30;;;;;;;19.92;68.94;98579.97;10418636;28;20548;-88
2022/09/14 16:42:27;;;;;;;10.65;4.25;;;;;;;19.88;69.49;98576.03;10402080;28;20053;-88
2022/09/14 16:47:31;;;;;;;8.80;2.80;;;;;;;19.70;69.47;98578.22;10414286;28;20053;-88
2022/09/14 16:52:32;;;;;;;4.38;2.60;;;;;;;19.48;70.02;98584.41;10412440;28;20057;-87
2022/09/14 16:57:34;;;;;;;6.13;2.90;;;;;;;19.63;69.71;98590.53;10411563;28;20049;-88
2022/09/14 17:02:36;;;;;;;8.50;3.65;;;;;;;19.64;69.96;98586.88;10410539;28;20058;-88
2022/09/14 17:07:37;;;;;;;5.78;3.60;;;;;;;19.62;70.21;98615.41;10410431;28;20054;-88
2022/09/14 17:12:39;;;;;;;9.63;3.70;;;;;;;19.66;70.23;98614.06;10410240;28;20080;-87
2022/09/14 17:17:41;;;;;;;6.57;3.15;;;;;;;19.63;70.13;98617.06;10391709;28;20054;-87
2022/09/14 17:22:43;;;;;;;6.57;2.78;;;;;;;19.61;70.17;98617.25;10393228;28;20140;-87
2022/09/14 17:27:59;;;;;;;4.50;2.70;;;;;;;19.58;70.03;98620.28;10389400;28;20056;-88
2022/09/14 17:33:01;;;;;;;6.15;2.60;;;;;;;19.55;70.07;98615.31;10390950;28;20488;-88
2022/09/14 17:38:03;;;;;;;4.45;2.78;;;;;;;19.58;69.79;98598.22;10397042;28;20094;-88
2022/09/14 17:43:06;;;;;;;6.35;3.03;;;;;;;19.58;70.15;98603.53;10402327;28;20079;-88
2022/09/14 17:48:09;;;;;;;5.45;2.50;;;;;;;19.54;69.90;98581.03;10404004;28;20049;-87
2022/09/14 17:53:11;;;;;;;5.78;2.40;;;;;;;19.49;69.95;98589.50;10411471;28;20107;-88
2022/09/14 17:58:14;;;;;;;4.13;2.28;;;;;;;19.44;69.78;98603.31;10400583;28;20771;-89
2022/09/14 18:03:20;;;;;;;5.20;2.30;;;;;;;19.40;69.87;98607.31;10400511;28;20057;-88
2022/09/14 18:08:24;;;;;;;6.15;2.30;;;;;;;19.35;69.73;98617.66;10396309;28;20068;-81
2022/09/14 18:13:26;;;;;;;4.32;1.90;;;;;;;19.26;69.97;98626.66;10387832;28;20057;-81
2022/09/14 18:18:29;;;;;;;3.83;2.10;;;;;;;19.26;69.59;98626.66;10396279;28;20076;-81
2022/09/14 18:23:30;;;;;;;5.68;2.15;;;;;;;19.38;69.63;98648.25;10389131;28;20616;-79
2022/09/14 18:28:33;;;;;;;7.38;2.22;;;;;;;19.44;69.21;98658.16;10392108;28;20545;-80
2022/09/14 18:33:36;;;;;;;3.67;2.08;;;;;;;19.48;69.32;98663.94;10392762;28;20057;-79
2022/09/14 18:38:37;;;;;;;4.50;2.10;;;;;;;19.37;69.14;98681.94;10393913;28;20060;-79
2022/09/14 18:43:48;;;;;;;4.05;2.20;;;;;;;19.21;69.31;98703.25;10395065;28;20065;-79
2022/09/14 18:48:51;;;;;;;2.95;2.10;;;;;;;19.14;69.54;98701.47;10393156;28;20495;-80
2022/09/14 18:54:02;;;;;;;2.08;1.33;;;;;;;19.10;68.88;98719.56;10398534;28;20499;-80
2022/09/14 18:59:12;;;;;;;2.20;1.30;;;;;;;19.14;68.70;98712.06;10394832;28;20423;-81
2022/09/14 19:04:14;;;;;;;2.83;1.30;;;;;;;19.10;68.65;98716.06;10394124;28;20053;-80
2022/09/14 19:09:16;;;;;;;4.07;1.30;;;;;;;19.02;68.48;98718.75;10393718;28;20443;-80
2022/09/14 19:14:20;;;;;;;1.77;1.20;;;;;;;18.96;68.24;98720.25;10391950;28;20053;-79
2022/09/14 19:19:22;;;;;;;3.45;1.20;;;;;;;19.04;68.45;98724.72;10392184;28;20067;-79
2022/09/14 19:24:29;;;;;;;2.80;1.40;;;;;;;19.05;68.04;98718.44;10389576;28;20053;-79
2022/09/14 19:29:31;;;;;;;3.63;1.33;;;;;;;19.00;68.15;98713.63;10387704;28;20061;-79
2022/09/14 19:34:33;;;;;;;3.05;1.08;;;;;;;19.04;67.52;98719.41;10384170;28;20045;-79
2022/09/14 19:39:35;;;;;;;3.13;1.38;;;;;;;18.96;67.95;98720.25;10381150;28;20061;-79
2022/09/14 19:44:37;;;;;;;2.25;1.33;;;;;;;18.93;67.93;98720.59;10387408;28;20049;-79
2022/09/14 19:49:39;;;;;;;4.60;1.42;;;;;;;18.92;67.92;98710.19;10400501;28;20057;-79
2022/09/14 19:54:42;;;;;;;3.10;1.30;;;;;;;18.98;67.68;98717.44;10398675;28;20053;-79
2022/09/14 19:59:44;;;;;;;5.88;1.30;;;;;;;18.99;67.24;98725.19;10400850;28;20059;-79
2022/09/14 20:04:47;;;;;;;3.63;1.30;;;;;;;19.01;67.58;98728.50;10317816;28;20491;-79
2022/09/14 20:09:52;;;;;;;3.55;1.33;;;;;;;18.96;67.81;98722.91;10318237;28;20054;-79
2022/09/14 20:14:54;;;;;;;4.65;1.75;;;;;;;18.93;68.25;98731.19;10314861;28;20136;-79
2022/09/14 20:19:56;;;;;;;4.50;1.55;;;;;;;18.69;68.95;98735.81;10313994;28;20054;-80
2022/09/14 20:24:57;;;;;;;3.92;1.50;;;;;;;18.71;68.99;98733.81;10315794;28;20054;-79
2022/09/14 20:29:59;;;;;;;3.78;1.25;;;;;;;18.64;68.41;98738.97;10317059;28;20444;-79
2022/09/14 20:35:01;;;;;;;6.43;1.52;;;;;;;18.66;68.56;98750.22;10315259;28;20237;-79
2022/09/14 20:40:03;;;;;;;4.32;1.60;;;;;;;18.72;68.91;98746.88;10315636;28;20065;-80
2022/09/14 20:45:06;;;;;;;7.38;2.10;;;;;;;18.77;68.64;98752.47;10322497;28;20492;-79
2022/09/14 20:50:08;;;;;;;2.60;1.30;;;;;;;18.78;68.14;98762.06;10316439;28;20933;-80
2022/09/14 20:55:09;;;;;;;3.47;1.50;;;;;;;18.84;68.24;98753.44;10316248;28;20101;-79
2022/09/14 21:00:12;;;;;;;3.75;1.45;;;;;;;18.87;68.19;98753.06;10321733;28;20063;-79
2022/09/14 21:05:13;;;;;;;5.95;2.22;;;;;;;18.79;68.07;98755.75;10397586;28;20045;-80
2022/09/14 21:10:15;;;;;;;4.50;1.98;;;;;;;18.67;68.60;98749.19;10396072;28;20053;-80
2022/09/14 21:15:17;;;;;;;5.22;1.40;;;;;;;18.60;68.86;98750.88;10393922;28;20871;-79
2022/09/14 21:20:18;;;;;;;5.60;1.90;;;;;;;18.58;68.76;98758.19;10396898;28;20056;-80
2022/09/14 21:25:20;;;;;;;5.45;1.67;;;;;;;18.61;68.57;98765.75;10396449;28;20911;-80
2022/09/14 21:30:21;;;;;;;2.63;1.58;;;;;;;18.61;68.58;98769.25;10396291;28;20057;-79
2022/09/14 21:35:23;;;;;;;10.60;1.90;;;;;;;18.63;68.35;98761.97;10393471;28;20049;-79
2022/09/14 21:40:25;;;;;;;7.53;2.25;;;;;;;18.66;68.64;98758.16;10395343;28;20998;-79
2022/09/14 21:45:27;;;;;;;8.13;2.35;;;;;;;18.63;69.00;98766.41;10393756;28;20053;-80
2022/09/14 21:50:28;;;;;;;8.32;3.50;;;;;;;18.61;68.92;98773.72;10397171;28;20053;-80
2022/09/14 21:55:31;;;;;;;13.30;7.90;;;;;;;18.59;68.98;98781.00;10396695;28;20057;-80
2022/09/14 22:00:33;;;;;;;18.13;12.40;;;;;;;18.61;69.14;98787.78;10396053;28;20061;-79
2022/09/14 22:05:34;;;;;;;17.50;11.88;;;;;;;18.44;69.30;98788.00;10395685;28;20458;-79
2022/09/14 22:10:37;;;;;;;20.20;13.38;;;;;;;18.33;69.44;98773.31;10396588;28;20529;-80
2022/09/14 22:15:38;;;;;;;24.10;15.20;;;;;;;18.35;69.71;98770.47;10394391;28;20049;-79
2022/09/14 22:20:41;;;;;;;22.55;11.82;;;;;;;18.39;69.61;98779.72;10396431;28;20053;-79
2022/09/14 22:25:42;;;;;;;28.35;13.65;;;;;;;18.38;69.87;98767.50;10396876;28;20423;-80
2022/09/14 22:30:52;;;;;;;15.13;10.35;;;;;;;18.37;69.43;98773.78;10394626;28;20533;-80
2022/09/14 22:35:57;;;;;;;15.15;10.20;;;;;;;18.21;70.19;98779.09;10393539;28;20041;-80
2022/09/14 22:41:02;;;;;;;17.00;9.75;;;;;;;18.28;70.00;98778.25;10394056;28;20060;-79
2022/09/14 22:46:04;;;;;;;36.60;17.95;;;;;;;18.34;69.97;98779.44;10395518;28;20077;-80
2022/09/14 22:51:09;;;;;;;30.20;14.63;;;;;;;18.40;69.77;98776.09;10393379;28;20057;-79
2022/09/14 22:56:20;;;;;;;38.58;17.30;;;;;;;18.20;69.98;98769.53;10394678;28;20050;-80
2022/09/14 23:01:40;;;;;;;37.33;16.58;;;;;;;18.15;70.51;98775.28;10390892;28;20061;-79
2022/09/14 23:06:44;;;;;;;12.30;9.02;;;;;;;18.27;70.24;98781.06;10385642;28;20053;-79
2022/09/14 23:11:47;;;;;;;14.38;9.32;;;;;;;18.28;70.08;98783.56;10402771;28;20049;-80
2022/09/14 23:16:48;;;;;;;10.07;7.47;;;;;;;18.31;70.37;98779.75;10395065;28;20045;-79
2022/09/14 23:21:50;;;;;;;20.58;10.80;;;;;;;18.38;70.27;98784.19;10392488;28;20805;-79
2022/09/14 23:26:52;;;;;;;12.93;8.52;;;;;;;18.40;70.31;98787.50;10393674;28;20060;-79
2022/09/14 23:31:53;;;;;;;12.50;8.00;;;;;;;18.35;70.38;98778.41;10392728;28;20057;-80